Time;durP1;ratioP1;P1;durP2;ratioP2;P2;SDS_P1;SDS_P2;PMS_P1;PMS_P2;Temp;Humidity;BMP_temperature;BMP_pressure;BME280_temperature;BME280_humidity;BME280_pressure;Samples;Min_cycle;Max_cycle;Signal;HPM_P1;HPM_P2
2023/12/24 00:02:17;;;;;;;0.40;0.40;;;;;;;4.98;100.00;98122.78;5058508;28;20198;-61
2023/12/24 00:04:49;;;;;;;0.97;0.60;;;;;;;5.06;99.84;98120.56;5058099;28;20277;-61
2023/12/24 00:07:16;;;;;;;0.50;0.50;;;;;;;5.15;99.39;98130.09;5057024;28;20578;-61
2023/12/24 00:09:42;;;;;;;0.20;0.20;;;;;;;5.28;99.00;98131.81;5057944;28;20195;-61
2023/12/24 00:12:09;;;;;;;0.50;0.50;;;;;;;5.43;99.02;98128.25;5058610;28;20207;-60
2023/12/24 00:14:37;;;;;;;0.67;0.67;;;;;;;5.57;98.18;98130.69;5056869;28;20199;-61
2023/12/24 00:17:04;;;;;;;0.40;0.40;;;;;;;5.68;98.02;98138.38;5057351;28;20201;-61
2023/12/24 00:19:31;;;;;;;0.23;0.23;;;;;;;5.71;98.06;98136.56;5057198;28;20238;-61
2023/12/24 00:21:59;;;;;;;0.87;0.50;;;;;;;5.80;98.13;98146.09;5058595;28;20329;-61
2023/12/24 00:24:26;;;;;;;0.83;0.40;;;;;;;5.85;98.18;98144.06;5058253;28;20202;-60
2023/12/24 00:26:53;;;;;;;0.30;0.30;;;;;;;5.90;98.66;98139.47;5056426;28;20609;-61
2023/12/24 00:29:19;;;;;;;0.93;0.67;;;;;;;6.13;97.58;98143.78;5057930;28;20199;-61
2023/12/24 00:31:46;;;;;;;0.70;0.70;;;;;;;6.24;97.32;98152.41;5058237;28;20223;-61
2023/12/24 00:34:13;;;;;;;0.50;0.30;;;;;;;6.35;96.77;98162.63;5056498;28;20209;-61
2023/12/24 00:36:40;;;;;;;0.73;0.73;;;;;;;6.50;95.84;98164.09;5057023;28;20215;-61
2023/12/24 00:39:08;;;;;;;1.50;0.80;;;;;;;6.55;95.72;98177.28;5056747;28;20221;-61
2023/12/24 00:41:38;;;;;;;0.30;0.30;;;;;;;6.56;95.76;98180.63;5047329;28;20688;-60
2023/12/24 00:44:05;;;;;;;2.83;0.83;;;;;;;6.61;95.26;98182.84;5047479;28;20195;-61
2023/12/24 00:46:32;;;;;;;0.50;0.50;;;;;;;6.59;94.48;98180.41;5047213;28;20203;-61
2023/12/24 00:48:58;;;;;;;1.13;0.80;;;;;;;6.72;94.71;98191.34;5047411;28;20699;-61
2023/12/24 00:51:26;;;;;;;0.57;0.57;;;;;;;6.86;93.54;98203.03;5046827;28;20584;-61
2023/12/24 00:53:53;;;;;;;0.40;0.40;;;;;;;6.86;93.86;98203.03;5047312;28;20681;-60
2023/12/24 00:56:21;;;;;;;0.33;0.33;;;;;;;6.89;93.54;98196.94;5047112;28;20250;-61
2023/12/24 00:58:48;;;;;;;2.27;0.93;;;;;;;6.95;93.14;98207.47;5046938;28;20231;-61
2023/12/24 01:01:15;;;;;;;0.60;0.50;;;;;;;7.02;93.18;98207.84;5053717;28;20195;-61
2023/12/24 01:03:41;;;;;;;0.43;0.43;;;;;;;7.02;93.00;98203.56;5049646;28;20215;-61
2023/12/24 01:06:08;;;;;;;0.53;0.53;;;;;;;7.01;93.37;98201.97;5047843;28;20202;-61
2023/12/24 01:08:35;;;;;;;1.17;0.70;;;;;;;7.10;92.24;98215.75;5055219;28;20632;-61
2023/12/24 01:11:02;;;;;;;0.47;0.47;;;;;;;7.09;92.67;98218.38;5067849;28;20199;-61
2023/12/24 01:13:30;;;;;;;0.50;0.37;;;;;;;7.10;92.68;98217.44;5067880;28;20202;-61
2023/12/24 01:15:57;;;;;;;0.53;0.53;;;;;;;7.21;92.08;98225.13;5067918;28;20218;-61
2023/12/24 01:18:24;;;;;;;0.67;0.63;;;;;;;7.22;92.11;98226.75;5067697;28;20198;-61
2023/12/24 01:20:50;;;;;;;0.30;0.30;;;;;;;7.22;92.31;98224.22;5067757;28;20237;-61
2023/12/24 01:23:17;;;;;;;0.73;0.50;;;;;;;7.21;92.18;98228.50;5066204;28;20683;-61
2023/12/24 01:25:44;;;;;;;0.77;0.60;;;;;;;7.24;92.37;98233.34;5055900;28;20647;-61
2023/12/24 01:28:11;;;;;;;0.30;0.30;;;;;;;7.20;92.31;98234.47;5057977;28;20198;-60
2023/12/24 01:30:39;;;;;;;1.13;0.50;;;;;;;7.21;92.76;98225.13;5057575;28;20202;-61
2023/12/24 01:33:06;;;;;;;1.07;0.53;;;;;;;7.28;92.13;98244.09;5057216;28;20215;-60
2023/12/24 01:35:32;;;;;;;0.77;0.43;;;;;;;7.23;92.51;98246.16;5061196;28;20206;-60
2023/12/24 01:37:59;;;;;;;0.30;0.30;;;;;;;7.22;92.70;98255.53;5061422;28;20719;-61
2023/12/24 01:40:26;;;;;;;0.77;0.70;;;;;;;7.19;92.99;98250.66;5059670;28;20662;-61
2023/12/24 01:42:53;;;;;;;0.57;0.57;;;;;;;7.24;92.73;98240.13;5056536;28;20214;-61
2023/12/24 01:45:20;;;;;;;1.53;0.90;;;;;;;7.24;92.57;98258.78;5051232;28;20222;-61
2023/12/24 01:47:49;;;;;;;0.20;0.20;;;;;;;7.26;93.09;98256.09;5051227;28;20199;-61
2023/12/24 01:50:16;;;;;;;1.17;0.60;;;;;;;7.30;93.03;98257.53;5050997;28;20210;-60
2023/12/24 01:52:43;;;;;;;1.10;0.40;;;;;;;7.28;93.15;98266.97;5051056;28;20205;-61
2023/12/24 01:55:11;;;;;;;1.13;0.60;;;;;;;7.23;93.43;98263.94;5050730;28;20673;-60
2023/12/24 01:57:38;;;;;;;1.30;0.97;;;;;;;7.23;93.57;98266.50;5063369;28;20206;-61
2023/12/24 02:00:06;;;;;;;0.30;0.30;;;;;;;7.24;93.87;98255.41;5070949;28;20238;-61
2023/12/24 02:02:33;;;;;;;0.70;0.33;;;;;;;7.23;93.94;98261.41;5070768;28;20241;-61
2023/12/24 02:05:02;;;;;;;0.20;0.20;;;;;;;7.24;93.64;98268.09;5070791;28;20202;-61
2023/12/24 02:07:34;;;;;;;0.53;0.37;;;;;;;7.20;94.03;98257.34;5070465;28;20202;-61
2023/12/24 02:10:01;;;;;;;0.53;0.50;;;;;;;7.21;94.10;98268.31;5070719;28;20256;-61
2023/12/24 02:12:27;;;;;;;0.53;0.30;;;;;;;7.22;94.23;98267.44;5069192;28;20241;-61
2023/12/24 02:14:54;;;;;;;0.57;0.57;;;;;;;7.30;93.85;98272.78;5069851;28;20198;-61
2023/12/24 02:17:24;;;;;;;0.50;0.50;;;;;;;7.31;93.80;98268.50;5070100;28;20676;-61
2023/12/24 02:19:51;;;;;;;0.30;0.30;;;;;;;7.29;94.30;98273.69;5069328;28;20608;-61
2023/12/24 02:22:19;;;;;;;0.50;0.50;;;;;;;7.25;94.41;98285.00;5070385;28;20213;-61
2023/12/24 02:24:46;;;;;;;0.50;0.50;;;;;;;7.25;94.58;98290.09;5070230;28;20199;-61
2023/12/24 02:27:22;;;;;;;0.40;0.40;;;;;;;7.24;95.10;98284.19;5068813;28;20213;-61
2023/12/24 02:29:53;;;;;;;0.70;0.70;;;;;;;7.30;94.22;98298.19;5068900;28;20202;-61
2023/12/24 02:32:21;;;;;;;1.70;0.50;;;;;;;7.31;94.61;98299.00;5069269;28;20211;-60
2023/12/24 02:34:49;;;;;;;0.50;0.50;;;;;;;7.31;94.73;98307.44;5070235;28;20209;-60
2023/12/24 02:37:16;;;;;;;0.30;0.30;;;;;;;7.25;94.92;98295.16;5070087;28;20229;-61
2023/12/24 02:39:46;;;;;;;0.33;0.33;;;;;;;7.26;94.95;98307.75;5069877;28;20241;-60
2023/12/24 02:42:12;;;;;;;0.63;0.63;;;;;;;7.25;94.96;98315.50;5070041;28;20217;-61
2023/12/24 02:44:40;;;;;;;0.97;0.47;;;;;;;7.24;95.46;98318.97;5067818;28;20214;-61
2023/12/24 02:47:07;;;;;;;0.23;0.23;;;;;;;7.28;94.52;98314.50;5069049;28;20226;-61
2023/12/24 02:49:33;;;;;;;0.23;0.23;;;;;;;7.30;94.73;98318.53;5069771;28;20214;-61
2023/12/24 02:52:00;;;;;;;0.30;0.30;;;;;;;7.25;95.03;98315.50;5069809;28;20202;-61
2023/12/24 02:54:27;;;;;;;0.10;0.10;;;;;;;7.26;94.91;98309.50;5067829;28;20213;-61
2023/12/24 02:56:55;;;;;;;0.63;0.30;;;;;;;7.31;95.03;98317.63;5069563;28;20201;-61
2023/12/24 02:59:25;;;;;;;2.20;0.50;;;;;;;7.31;94.89;98310.00;5069758;28;20242;-61
2023/12/24 03:01:52;;;;;;;0.43;0.40;;;;;;;7.30;95.08;98318.53;5069626;28;20566;-61
2023/12/24 03:04:18;;;;;;;0.60;0.53;;;;;;;7.33;95.21;98325.94;5069569;28;20246;-61
2023/12/24 03:06:45;;;;;;;0.20;0.20;;;;;;;7.31;95.19;98325.25;5069427;28;20221;-61
2023/12/24 03:09:12;;;;;;;0.40;0.40;;;;;;;7.25;96.07;98318.06;5068445;28;20214;-61
2023/12/24 03:11:39;;;;;;;0.40;0.30;;;;;;;7.28;95.84;98334.81;5069470;28;20202;-61
2023/12/24 03:14:07;;;;;;;1.60;0.47;;;;;;;7.25;95.91;98346.81;5069407;28;20679;-61
2023/12/24 03:16:34;;;;;;;0.57;0.57;;;;;;;7.22;96.27;98343.69;5069263;28;20207;-61
2023/12/24 03:19:00;;;;;;;0.50;0.50;;;;;;;7.35;95.56;98352.06;5069306;28;20206;-60
2023/12/24 03:21:27;;;;;;;0.30;0.30;;;;;;;7.31;95.94;98353.22;5069086;28;20238;-61
2023/12/24 03:23:54;;;;;;;0.50;0.50;;;;;;;7.26;96.03;98358.59;5069087;28;20592;-61
2023/12/24 03:26:21;;;;;;;0.50;0.43;;;;;;;7.22;96.52;98356.41;5069000;28;20572;-61
2023/12/24 03:28:49;;;;;;;0.53;0.30;;;;;;;7.20;96.80;98353.16;5067676;28;20209;-61
2023/12/24 03:31:17;;;;;;;0.47;0.47;;;;;;;7.16;97.42;98369.56;5069176;28;20214;-61
2023/12/24 03:33:44;;;;;;;0.53;0.53;;;;;;;7.11;97.54;98363.97;5069062;28;20191;-61
2023/12/24 03:36:11;;;;;;;0.63;0.63;;;;;;;7.09;97.95;98378.50;5069052;28;20214;-61
2023/12/24 03:38:38;;;;;;;0.83;0.50;;;;;;;7.02;98.36;98378.94;5068878;28;20208;-60
2023/12/24 03:41:05;;;;;;;0.63;0.30;;;;;;;6.94;98.63;98370.22;5069046;28;20237;-61
2023/12/24 03:43:32;;;;;;;0.30;0.30;;;;;;;6.88;99.32;98370.63;5068816;28;20206;-61
2023/12/24 03:45:58;;;;;;;1.13;0.53;;;;;;;6.76;100.00;98374.81;5067449;28;20203;-61
2023/12/24 03:48:26;;;;;;;0.73;0.73;;;;;;;6.68;100.00;98369.44;5068661;28;20195;-61
2023/12/24 03:50:53;;;;;;;0.70;0.70;;;;;;;6.65;100.00;98382.34;5068864;28;20194;-61
2023/12/24 03:53:20;;;;;;;0.40;0.40;;;;;;;6.71;100.00;98392.09;5068709;28;20217;-61
2023/12/24 03:55:47;;;;;;;0.70;0.67;;;;;;;6.71;100.00;98395.44;5068225;28;20214;-61
2023/12/24 03:58:14;;;;;;;0.40;0.40;;;;;;;6.64;100.00;98401.06;5068695;28;20206;-61
2023/12/24 04:00:41;;;;;;;0.20;0.20;;;;;;;6.53;100.00;98400.03;5067171;28;20226;-61
2023/12/24 04:03:07;;;;;;;0.10;0.10;;;;;;;6.53;100.00;98410.19;5068520;28;20206;-60
2023/12/24 04:05:36;;;;;;;0.43;0.30;;;;;;;6.50;100.00;98410.41;5068917;28;20204;-61
2023/12/24 04:08:04;;;;;;;0.53;0.50;;;;;;;6.52;100.00;98416.19;5068479;28;20592;-61
2023/12/24 04:10:31;;;;;;;0.67;0.57;;;;;;;6.49;100.00;98423.22;5068896;28;20198;-61
2023/12/24 04:13:00;;;;;;;1.03;0.70;;;;;;;6.45;100.00;98431.94;5068789;28;20202;-61
2023/12/24 04:15:27;;;;;;;0.50;0.50;;;;;;;6.37;100.00;98439.22;5068538;28;20230;-61
2023/12/24 04:17:54;;;;;;;0.30;0.30;;;;;;;6.38;100.00;98439.16;5067092;28;20206;-61
2023/12/24 04:20:21;;;;;;;0.30;0.30;;;;;;;6.37;100.00;98455.31;5068182;28;20745;-61
2023/12/24 04:22:49;;;;;;;0.30;0.30;;;;;;;6.30;100.00;98447.25;5068572;28;20202;-61
2023/12/24 04:25:16;;;;;;;0.27;0.27;;;;;;;6.31;100.00;98460.75;5068188;28;20645;-61
2023/12/24 04:27:42;;;;;;;0.43;0.43;;;;;;;6.26;100.00;98470.41;5068189;28;20201;-61
2023/12/24 04:30:10;;;;;;;0.30;0.30;;;;;;;6.24;100.00;98460.34;5068170;28;20620;-61
2023/12/24 04:32:37;;;;;;;0.20;0.20;;;;;;;6.26;100.00;98461.06;5068104;28;20194;-61
2023/12/24 04:35:06;;;;;;;2.00;0.37;;;;;;;6.29;100.00;98465.13;5066652;28;20603;-61
2023/12/24 04:37:33;;;;;;;0.23;0.23;;;;;;;6.39;100.00;98473.78;5068548;28;20195;-61
2023/12/24 04:40:01;;;;;;;0.40;0.30;;;;;;;6.45;100.00;98483.53;5068328;28;20219;-61
2023/12/24 04:42:28;;;;;;;0.30;0.30;;;;;;;6.48;100.00;98490.94;5068213;28;20194;-60
2023/12/24 04:44:55;;;;;;;0.60;0.60;;;;;;;6.53;100.00;98491.47;5068364;28;20210;-61
2023/12/24 04:47:22;;;;;;;2.37;0.93;;;;;;;6.56;100.00;98490.44;5068251;28;20198;-61
2023/12/24 04:49:48;;;;;;;0.63;0.53;;;;;;;6.60;100.00;98496.94;5067991;28;20195;-61
2023/12/24 04:52:15;;;;;;;0.67;0.57;;;;;;;6.54;100.00;98492.28;5066535;28;20214;-61
2023/12/24 04:54:42;;;;;;;0.50;0.50;;;;;;;6.56;100.00;98503.16;5067838;28;20606;-61
2023/12/24 04:57:10;;;;;;;1.23;0.87;;;;;;;6.51;100.00;98488.19;5068004;28;20199;-61
2023/12/24 04:59:36;;;;;;;0.50;0.50;;;;;;;6.63;100.00;98495.94;5067868;28;20198;-61
2023/12/24 05:02:03;;;;;;;1.30;0.50;;;;;;;6.65;100.00;98509.34;5068166;28;20230;-61
2023/12/24 05:04:32;;;;;;;0.40;0.40;;;;;;;6.69;100.00;98515.84;5067981;28;20194;-61
2023/12/24 05:06:59;;;;;;;0.83;0.60;;;;;;;6.72;100.00;98520.72;5066734;28;20203;-61
2023/12/24 05:09:26;;;;;;;0.60;0.60;;;;;;;6.77;100.00;98523.78;5071420;28;20202;-62
2023/12/24 05:11:53;;;;;;;1.90;0.50;;;;;;;6.74;100.00;98524.81;5071816;28;20198;-61
2023/12/24 05:14:21;;;;;;;0.83;0.50;;;;;;;6.71;100.00;98531.81;5071768;28;20691;-61
2023/12/24 05:16:48;;;;;;;0.30;0.30;;;;;;;6.72;100.00;98525.81;5071610;28;20597;-61
2023/12/24 05:19:14;;;;;;;0.87;0.50;;;;;;;6.77;100.00;98533.94;5071955;28;20209;-60
2023/12/24 05:21:41;;;;;;;0.20;0.20;;;;;;;6.74;100.00;98534.97;5071458;28;20238;-61
2023/12/24 05:24:08;;;;;;;0.40;0.40;;;;;;;6.74;100.00;98534.97;5069182;28;20202;-61
2023/12/24 05:26:35;;;;;;;0.43;0.43;;;;;;;6.79;100.00;98543.09;5070940;28;20220;-61
2023/12/24 05:29:02;;;;;;;0.90;0.40;;;;;;;6.76;100.00;98550.13;5071434;28;20213;-61
2023/12/24 05:31:30;;;;;;;0.60;0.50;;;;;;;6.74;100.00;98544.31;5071332;28;20199;-61
2023/12/24 05:33:57;;;;;;;0.33;0.33;;;;;;;6.74;100.00;98560.38;5071370;28;20203;-61
2023/12/24 05:36:24;;;;;;;2.73;0.50;;;;;;;6.73;99.90;98556.22;5071798;28;20252;-61
2023/12/24 05:38:51;;;;;;;0.33;0.30;;;;;;;6.75;100.00;98566.28;5070124;28;20679;-61
2023/12/24 05:41:18;;;;;;;0.23;0.23;;;;;;;6.80;100.00;98569.31;5071306;28;20230;-61
2023/12/24 05:43:44;;;;;;;0.57;0.57;;;;;;;6.80;100.00;98569.31;5071091;28;20207;-61
2023/12/24 05:46:13;;;;;;;0.30;0.30;;;;;;;6.80;100.00;98569.31;5071087;28;20230;-61
2023/12/24 05:48:41;;;;;;;0.67;0.60;;;;;;;6.86;99.87;98574.00;5070891;28;20222;-61
2023/12/24 05:51:08;;;;;;;0.30;0.30;;;;;;;6.89;100.00;98588.25;5071292;28;20230;-61
2023/12/24 05:53:35;;;;;;;0.47;0.47;;;;;;;6.87;100.00;98585.00;5070922;28;20609;-61
2023/12/24 05:56:01;;;;;;;6.03;0.50;;;;;;;6.77;100.00;98589.84;5069421;28;20202;-61
2023/12/24 05:58:28;;;;;;;1.10;0.70;;;;;;;6.72;100.00;98591.88;5071212;28;20211;-61
2023/12/24 06:00:55;;;;;;;0.20;0.20;;;;;;;6.70;100.00;98601.31;5070897;28;20625;-61
2023/12/24 06:03:22;;;;;;;0.40;0.40;;;;;;;6.78;100.00;98606.75;5070885;28;20210;-61
2023/12/24 06:05:50;;;;;;;0.43;0.43;;;;;;;6.77;100.00;98616.06;5070744;28;20206;-61
2023/12/24 06:08:17;;;;;;;0.43;0.40;;;;;;;6.71;100.00;98624.06;5070621;28;20202;-61
2023/12/24 06:10:45;;;;;;;0.53;0.43;;;;;;;6.68;100.00;98626.00;5070773;28;20203;-61
2023/12/24 06:13:12;;;;;;;0.40;0.40;;;;;;;6.66;100.00;98637.97;5069220;28;20209;-61
2023/12/24 06:15:39;;;;;;;0.50;0.50;;;;;;;6.67;100.00;98624.38;5070515;28;20209;-61
2023/12/24 06:18:06;;;;;;;1.13;0.67;;;;;;;6.61;100.00;98624.78;5069486;28;20207;-61
2023/12/24 06:20:33;;;;;;;0.60;0.60;;;;;;;6.62;100.00;98631.47;5068758;28;20285;-61
2023/12/24 06:23:02;;;;;;;0.60;0.60;;;;;;;6.56;100.00;98636.03;5069818;28;20203;-61
2023/12/24 06:25:29;;;;;;;0.40;0.40;;;;;;;6.55;100.00;98633.59;5070608;28;20198;-61
2023/12/24 06:27:56;;;;;;;0.50;0.40;;;;;;;6.57;100.00;98642.75;5068945;28;20209;-61
2023/12/24 06:30:22;;;;;;;3.00;1.03;;;;;;;6.61;100.00;98645.09;5070430;28;20691;-61
2023/12/24 06:32:49;;;;;;;0.93;0.63;;;;;;;6.63;100.00;98639.00;5070136;28;20210;-61
2023/12/24 06:35:16;;;;;;;2.03;1.50;;;;;;;6.67;100.00;98640.44;5070382;28;22632;-61
2023/12/24 06:37:43;;;;;;;4.07;2.83;;;;;;;6.70;100.00;98639.44;5070119;28;20655;-61
2023/12/24 06:40:12;;;;;;;6.60;3.03;;;;;;;6.77;100.00;98648.28;5070631;28;20205;-61
2023/12/24 06:42:38;;;;;;;11.63;3.03;;;;;;;6.82;100.00;98643.72;5069901;28;20206;-61
2023/12/24 06:45:06;;;;;;;6.73;2.60;;;;;;;6.89;100.00;98644.94;5068624;28;20679;-61
2023/12/24 06:47:33;;;;;;;4.13;1.80;;;;;;;6.95;100.00;98647.13;5070047;28;20675;-61
2023/12/24 06:50:00;;;;;;;1.77;1.17;;;;;;;7.03;100.00;98649.97;5070149;28;20203;-61
2023/12/24 06:52:27;;;;;;;0.50;0.43;;;;;;;7.08;100.00;98654.75;5070553;28;20206;-61
2023/12/24 06:54:54;;;;;;;1.17;0.57;;;;;;;7.11;100.00;98648.66;5069815;28;20616;-61
2023/12/24 06:57:22;;;;;;;0.40;0.40;;;;;;;7.21;100.00;98660.69;5070111;28;20488;-61
2023/12/24 06:59:49;;;;;;;0.43;0.43;;;;;;;7.24;100.00;98664.72;5068006;28;20210;-61
2023/12/24 07:02:16;;;;;;;0.30;0.30;;;;;;;7.30;100.00;98659.28;5069565;28;20230;-61
2023/12/24 07:04:43;;;;;;;0.27;0.27;;;;;;;7.38;99.49;98661.28;5069554;28;20199;-61
2023/12/24 07:07:09;;;;;;;0.40;0.40;;;;;;;7.38;99.23;98662.09;5069762;28;20205;-61
2023/12/24 07:09:36;;;;;;;0.30;0.30;;;;;;;7.44;99.02;98671.88;5069603;28;20210;-61
2023/12/24 07:12:04;;;;;;;1.00;0.73;;;;;;;7.52;99.24;98679.00;5070030;28;20213;-61
2023/12/24 07:14:32;;;;;;;0.37;0.37;;;;;;;7.51;98.90;98662.13;5067984;28;20207;-61
2023/12/24 07:16:59;;;;;;;2.03;0.80;;;;;;;7.60;98.87;98665.78;5069396;28;20215;-61
2023/12/24 07:19:26;;;;;;;0.87;0.60;;;;;;;7.63;98.57;98666.38;5069339;28;20202;-61
2023/12/24 07:21:52;;;;;;;0.33;0.30;;;;;;;7.64;98.65;98673.09;5069068;28;20610;-61
2023/12/24 07:24:19;;;;;;;0.63;0.33;;;;;;;7.75;98.10;98680.03;5063516;28;20570;-61
2023/12/24 07:26:46;;;;;;;0.77;0.50;;;;;;;7.85;97.65;98686.13;5069632;28;20564;-61
2023/12/24 07:29:13;;;;;;;1.17;1.07;;;;;;;7.87;97.60;98684.28;5069035;28;20230;-61
2023/12/24 07:31:41;;;;;;;0.77;0.70;;;;;;;7.92;97.66;98681.44;5068337;28;20225;-61
2023/12/24 07:34:08;;;;;;;0.17;0.17;;;;;;;7.97;96.95;98698.91;5069127;28;20230;-61
2023/12/24 07:36:35;;;;;;;0.37;0.37;;;;;;;8.03;96.58;98706.97;5068832;28;20770;-61
2023/12/24 07:39:03;;;;;;;0.27;0.27;;;;;;;8.07;96.13;98699.94;5067787;28;20235;-61
2023/12/24 07:41:31;;;;;;;1.53;0.20;;;;;;;8.09;96.21;98704.00;5055820;28;20266;-61
2023/12/24 07:43:58;;;;;;;0.30;0.30;;;;;;;8.17;95.92;98711.09;5058763;28;20571;-61
2023/12/24 07:46:24;;;;;;;0.40;0.40;;;;;;;8.33;95.05;98705.78;5056370;28;20609;-61
2023/12/24 07:48:52;;;;;;;0.73;0.60;;;;;;;8.44;94.68;98711.00;5059064;28;20202;-61
2023/12/24 07:51:19;;;;;;;0.30;0.30;;;;;;;8.55;94.53;98715.31;5058150;28;20192;-61
2023/12/24 07:53:46;;;;;;;0.57;0.57;;;;;;;8.66;94.44;98717.13;5057488;28;20205;-61
2023/12/24 07:56:13;;;;;;;0.43;0.43;;;;;;;8.90;93.43;98710.31;5060280;28;20206;-61
2023/12/24 07:58:39;;;;;;;1.23;0.90;;;;;;;9.12;92.57;98719.78;5066163;28;20194;-61
2023/12/24 08:01:06;;;;;;;0.60;0.27;;;;;;;9.27;90.95;98705.91;5061280;28;20253;-61
2023/12/24 08:03:33;;;;;;;0.30;0.30;;;;;;;9.44;90.48;98708.97;5057633;28;20206;-61
2023/12/24 08:06:01;;;;;;;0.30;0.30;;;;;;;9.53;88.92;98723.59;5057687;28;20199;-62
2023/12/24 08:08:28;;;;;;;1.50;0.67;;;;;;;9.53;90.39;98715.94;5058448;28;20753;-61
2023/12/24 08:10:55;;;;;;;0.63;0.40;;;;;;;9.49;89.50;98714.53;5058606;28;20195;-61
2023/12/24 08:13:22;;;;;;;1.10;0.50;;;;;;;9.45;89.87;98706.31;5056443;28;20195;-61
2023/12/24 08:15:49;;;;;;;0.60;0.60;;;;;;;9.46;90.30;98717.31;5055829;28;20205;-61
2023/12/24 08:18:16;;;;;;;0.57;0.57;;;;;;;9.52;89.95;98716.88;5056302;28;20195;-61
2023/12/24 08:20:42;;;;;;;0.30;0.30;;;;;;;9.48;88.02;98718.00;5048487;28;20192;-61
2023/12/24 08:23:11;;;;;;;0.40;0.40;;;;;;;9.52;88.58;98727.88;5053588;28;20207;-61
2023/12/24 08:25:37;;;;;;;0.40;0.40;;;;;;;9.60;88.66;98736.69;5059378;28;20286;-61
2023/12/24 08:28:06;;;;;;;0.37;0.37;;;;;;;9.64;87.93;98735.56;5062370;28;20187;-61
2023/12/24 08:30:32;;;;;;;0.50;0.50;;;;;;;9.65;87.43;98732.88;5065642;28;20279;-61
2023/12/24 08:32:59;;;;;;;0.23;0.23;;;;;;;9.86;87.44;98734.75;5059106;28;20703;-61
2023/12/24 08:35:26;;;;;;;0.53;0.40;;;;;;;10.30;85.56;98740.88;5063310;28;20210;-61
2023/12/24 08:37:53;;;;;;;0.70;0.60;;;;;;;10.67;82.71;98738.00;5056910;28;20211;-61
2023/12/24 08:40:22;;;;;;;0.80;0.40;;;;;;;11.00;81.80;98737.91;5053742;28;20203;-61
2023/12/24 08:42:49;;;;;;;0.40;0.40;;;;;;;11.08;80.38;98743.22;5067942;28;20226;-61
2023/12/24 08:45:16;;;;;;;0.30;0.30;;;;;;;11.19;80.72;98732.13;5068313;28;20202;-61
2023/12/24 08:47:42;;;;;;;0.37;0.37;;;;;;;11.25;79.57;98725.69;5068615;28;20223;-61
2023/12/24 08:50:09;;;;;;;0.90;0.50;;;;;;;10.98;79.12;98721.06;5071214;28;20198;-61
2023/12/24 08:52:36;;;;;;;0.30;0.30;;;;;;;10.77;79.47;98723.56;5071066;28;20404;-61
2023/12/24 08:55:05;;;;;;;0.37;0.30;;;;;;;10.78;81.11;98727.75;5071121;28;20206;-61
2023/12/24 08:57:34;;;;;;;0.30;0.30;;;;;;;10.83;79.28;98712.84;5070099;28;20267;-61
2023/12/24 09:00:01;;;;;;;0.50;0.50;;;;;;;10.85;78.39;98713.56;5069609;28;20602;-61
2023/12/24 09:02:28;;;;;;;0.30;0.30;;;;;;;10.89;79.36;98712.38;5071797;28;20238;-61
2023/12/24 09:04:57;;;;;;;0.30;0.30;;;;;;;10.90;79.40;98705.50;5072000;28;20667;-61
2023/12/24 09:07:23;;;;;;;0.30;0.30;;;;;;;10.92;79.65;98696.78;5065931;28;20257;-61
2023/12/24 09:09:51;;;;;;;0.27;0.27;;;;;;;10.91;78.85;98705.41;5068556;28;20203;-61
2023/12/24 09:12:18;;;;;;;0.50;0.40;;;;;;;10.94;80.23;98697.47;5068003;28;20195;-61
2023/12/24 09:14:46;;;;;;;0.77;0.70;;;;;;;11.33;79.25;98693.41;5069327;28;20281;-61
2023/12/24 09:17:13;;;;;;;0.70;0.53;;;;;;;11.57;75.27;98698.28;5069486;28;20206;-61
2023/12/24 09:19:40;;;;;;;0.40;0.40;;;;;;;11.65;76.88;98695.09;5071808;28;20205;-61
2023/12/24 09:22:06;;;;;;;0.77;0.50;;;;;;;11.65;75.35;98686.59;5072393;28;20739;-62
2023/12/24 09:24:33;;;;;;;0.50;0.50;;;;;;;11.84;73.70;98688.41;5071581;28;20217;-59
2023/12/24 09:27:00;;;;;;;0.20;0.20;;;;;;;12.00;74.36;98681.91;5071711;28;20202;-61
2023/12/24 09:29:27;;;;;;;0.40;0.40;;;;;;;11.91;73.63;98677.56;5071791;28;20809;-61
2023/12/24 09:31:56;;;;;;;0.77;0.57;;;;;;;11.71;74.31;98676.66;5071057;28;20715;-62
2023/12/24 09:34:23;;;;;;;0.80;0.40;;;;;;;11.51;74.78;98662.94;5070038;28;20214;-59
2023/12/24 09:36:49;;;;;;;0.50;0.50;;;;;;;11.44;76.31;98678.94;5071664;28;20746;-60
2023/12/24 09:39:16;;;;;;;0.50;0.50;;;;;;;11.50;76.73;98668.19;5071393;28;20221;-59
2023/12/24 09:41:43;;;;;;;0.60;0.60;;;;;;;11.54;75.66;98680.59;5071312;28;20239;-59
2023/12/24 09:44:10;;;;;;;0.30;0.30;;;;;;;11.37;75.09;98678.63;5071129;28;20199;-60
2023/12/24 09:46:37;;;;;;;0.57;0.30;;;;;;;11.27;75.48;98664.97;5071285;28;20198;-59
2023/12/24 09:49:05;;;;;;;0.17;0.17;;;;;;;11.31;75.06;98672.28;5069610;28;20217;-60
2023/12/24 09:51:36;;;;;;;0.30;0.30;;;;;;;11.35;75.11;98664.34;5071136;28;20203;-60
2023/12/24 09:54:04;;;;;;;1.80;0.47;;;;;;;11.43;76.53;98657.66;5070583;28;20195;-60
2023/12/24 09:56:30;;;;;;;0.63;0.37;;;;;;;11.41;75.04;98666.41;5070884;28;20202;-61
2023/12/24 09:58:57;;;;;;;0.73;0.47;;;;;;;11.48;77.20;98668.31;5071455;28;20202;-61
2023/12/24 10:01:24;;;;;;;0.50;0.50;;;;;;;11.50;76.82;98658.75;5070882;28;20206;-61
2023/12/24 10:03:50;;;;;;;0.50;0.50;;;;;;;11.33;75.60;98667.03;5070785;28;20221;-61
2023/12/24 10:06:18;;;;;;;0.17;0.17;;;;;;;11.41;76.80;98664.66;5069407;28;20203;-61
2023/12/24 10:08:45;;;;;;;0.87;0.60;;;;;;;11.61;75.47;98657.06;5070789;28;20211;-61
2023/12/24 10:11:16;;;;;;;0.60;0.50;;;;;;;11.56;73.70;98673.63;5070808;28;20199;-61
2023/12/24 10:13:44;;;;;;;0.63;0.63;;;;;;;11.68;74.23;98676.09;5070437;28;20421;-62
2023/12/24 10:16:11;;;;;;;0.40;0.40;;;;;;;11.79;73.25;98678.56;5070624;28;20225;-61
2023/12/24 10:18:37;;;;;;;1.03;0.53;;;;;;;11.89;72.24;98679.44;5070513;28;20194;-61
2023/12/24 10:21:06;;;;;;;0.83;0.40;;;;;;;12.16;72.77;98686.56;5070822;28;20297;-61
2023/12/24 10:23:34;;;;;;;0.50;0.43;;;;;;;12.30;70.50;98685.38;5068845;28;20230;-61
2023/12/24 10:26:03;;;;;;;1.03;0.73;;;;;;;12.39;67.84;98692.28;5070656;28;20203;-61
2023/12/24 10:28:30;;;;;;;1.87;0.50;;;;;;;12.63;68.80;98680.84;5070772;28;20199;-61
2023/12/24 10:31:07;;;;;;;0.50;0.50;;;;;;;13.05;68.22;98688.28;5070514;28;20222;-61
2023/12/24 10:33:34;;;;;;;0.40;0.40;;;;;;;13.17;66.38;98683.81;5070284;28;20561;-61
2023/12/24 10:36:00;;;;;;;0.70;0.60;;;;;;;13.05;67.36;98688.28;5070392;28;20701;-62
2023/12/24 10:38:28;;;;;;;0.63;0.40;;;;;;;13.15;67.20;98683.94;5070143;28;20210;-61
2023/12/24 10:40:56;;;;;;;0.67;0.50;;;;;;;13.02;65.42;98680.84;5068994;28;20200;-61
2023/12/24 10:43:23;;;;;;;1.00;0.53;;;;;;;13.05;66.80;98678.00;5069812;28;20236;-60
2023/12/24 10:45:50;;;;;;;0.67;0.67;;;;;;;13.00;65.09;98675.03;5070051;28;20672;-61
2023/12/24 10:48:17;;;;;;;0.97;0.53;;;;;;;13.10;67.33;98670.72;5069919;28;20195;-61
2023/12/24 10:50:44;;;;;;;0.70;0.60;;;;;;;12.98;65.42;98672.63;5070353;28;20205;-61
2023/12/24 10:53:11;;;;;;;0.63;0.63;;;;;;;13.00;66.22;98669.91;5070128;28;20277;-61
2023/12/24 10:55:42;;;;;;;2.10;0.70;;;;;;;12.91;65.85;98671.53;5069712;28;20205;-61
2023/12/24 10:58:20;;;;;;;1.30;0.97;;;;;;;12.91;65.59;98682.63;5068046;28;20222;-61
2023/12/24 11:00:47;;;;;;;0.47;0.47;;;;;;;12.87;67.52;98671.00;5069574;28;20701;-61
2023/12/24 11:03:42;;;;;;;2.30;1.00;;;;;;;12.92;66.06;98673.16;5069858;28;20244;-61
2023/12/24 11:06:09;;;;;;;0.40;0.40;;;;;;;12.90;65.69;98665.59;5068565;28;20413;-61
2023/12/24 11:08:36;;;;;;;0.93;0.47;;;;;;;13.04;63.68;98640.47;5069468;28;20211;-60
2023/12/24 11:11:04;;;;;;;0.50;0.50;;;;;;;13.09;64.36;98656.28;5069840;28;20200;-61
2023/12/24 11:13:47;;;;;;;0.70;0.70;;;;;;;13.24;63.99;98657.44;5069707;28;20198;-61
2023/12/24 11:16:41;;;;;;;0.50;0.40;;;;;;;13.27;63.70;98656.41;5067916;28;20223;-61
2023/12/24 11:19:08;;;;;;;0.60;0.43;;;;;;;13.30;62.79;98656.94;5069439;28;20233;-61
2023/12/24 11:22:07;;;;;;;0.80;0.50;;;;;;;13.23;62.57;98666.09;5069282;28;20326;-60
2023/12/24 11:24:34;;;;;;;1.13;1.00;;;;;;;13.40;63.37;98676.63;5069168;28;20200;-60
2023/12/24 11:27:01;;;;;;;0.53;0.40;;;;;;;13.51;62.22;98679.03;5069176;28;20655;-61
2023/12/24 11:29:47;;;;;;;0.30;0.30;;;;;;;13.39;62.07;98668.13;5069422;28;20204;-60
